createdAt,value
2023-04-15T00:02:49.417Z,3.27
2023-04-15T00:07:53.839Z,3.83
2023-04-15T00:12:57.187Z,4.00
2023-04-15T00:18:00.668Z,4.20
2023-04-15T00:23:05.991Z,4.57
2023-04-15T00:28:09.500Z,4.97
2023-04-15T00:33:14.035Z,5.43
2023-04-15T00:38:18.552Z,4.60
2023-04-15T00:43:22.004Z,4.80
2023-04-15T00:48:25.523Z,4.17
2023-04-15T00:53:29.880Z,4.73
2023-04-15T00:58:33.022Z,4.13
2023-04-15T01:03:36.708Z,4.40
2023-04-15T01:08:41.552Z,4.60
2023-04-15T01:13:44.940Z,5.07
2023-04-15T01:18:47.948Z,4.63
2023-04-15T01:23:54.235Z,4.07
2023-04-15T01:28:58.786Z,4.20
2023-04-15T01:34:02.519Z,4.50
2023-04-15T01:39:06.575Z,4.37
2023-04-15T01:44:11.007Z,4.73
2023-04-15T01:49:14.441Z,4.73
2023-04-15T01:54:17.673Z,4.73
2023-04-15T01:59:22.734Z,4.50
2023-04-15T02:04:25.754Z,5.00
2023-04-15T02:09:29.705Z,4.07
2023-04-15T02:14:34.486Z,4.60
2023-04-15T02:19:38.071Z,4.77
2023-04-15T02:24:41.062Z,4.83
2023-04-15T02:29:46.568Z,5.27
2023-04-15T02:34:49.974Z,4.63
2023-04-15T02:39:52.962Z,4.77
2023-04-15T02:44:58.609Z,5.30
2023-04-15T02:50:02.145Z,5.53
2023-04-15T02:55:07.069Z,5.00
2023-04-15T03:00:13.216Z,4.60
2023-04-15T03:05:16.637Z,5.37
2023-04-15T03:10:19.932Z,6.10
2023-04-15T03:15:24.524Z,5.47
2023-04-15T03:20:28.055Z,5.20
2023-04-15T03:25:31.797Z,5.03
2023-04-15T03:30:36.565Z,4.90
2023-04-15T03:35:39.942Z,5.00
2023-04-15T03:40:43.559Z,4.70
2023-04-15T03:45:47.909Z,4.57
2023-04-15T03:50:51.320Z,4.30
2023-04-15T03:55:54.342Z,4.77
2023-04-15T04:00:59.272Z,5.03
2023-04-15T04:06:02.476Z,5.30
2023-04-15T04:11:06.911Z,5.13
2023-04-15T04:16:11.360Z,4.87
2023-04-15T04:21:14.851Z,4.87
2023-04-15T04:26:18.227Z,4.50
2023-04-15T04:31:23.006Z,5.00
2023-04-15T04:36:26.855Z,4.63
2023-04-15T04:41:29.858Z,5.10
2023-04-15T04:46:34.563Z,4.83
2023-04-15T04:51:37.978Z,4.87
2023-04-15T04:56:41.428Z,4.87
2023-04-15T05:01:46.869Z,4.70
2023-04-15T05:06:50.357Z,4.63
2023-04-15T05:11:53.738Z,4.40
2023-04-15T05:16:58.340Z,4.90
2023-04-15T05:22:02.297Z,4.90
2023-04-15T05:27:05.425Z,5.17
2023-04-15T05:32:10.332Z,6.03
2023-04-15T05:37:13.833Z,6.40
2023-04-15T05:42:16.860Z,6.07
2023-04-15T05:47:21.210Z,6.83
2023-04-15T05:52:24.275Z,6.67
2023-04-15T05:57:27.666Z,6.80
2023-04-15T06:02:33.044Z,6.80
2023-04-15T06:07:37.976Z,6.90
2023-04-15T06:12:41.403Z,6.90
2023-04-15T06:17:45.824Z,6.90
2023-04-15T06:22:49.327Z,6.80
2023-04-15T06:27:52.711Z,7.33
2023-04-15T06:32:57.303Z,7.60
2023-04-15T06:38:00.352Z,7.47
2023-04-15T06:43:05.170Z,7.37
2023-04-15T06:48:09.496Z,7.73
2023-04-15T06:53:12.818Z,7.03
2023-04-15T06:58:16.309Z,8.23
2023-04-15T07:03:21.074Z,8.20
2023-04-15T07:08:24.193Z,8.10
2023-04-15T07:13:27.270Z,8.50
2023-04-15T07:18:31.615Z,8.50
2023-04-15T07:23:34.605Z,7.07
2023-04-15T07:28:37.618Z,8.13
2023-04-15T07:33:42.621Z,8.40
2023-04-15T07:38:45.972Z,8.40
2023-04-15T07:43:50.040Z,8.23
2023-04-15T07:48:54.626Z,8.60
2023-04-15T07:53:57.668Z,8.30
2023-04-15T07:59:02.317Z,8.20
2023-04-15T08:04:07.454Z,7.70
2023-04-15T08:09:10.932Z,7.70
2023-04-15T08:14:14.017Z,7.47
2023-04-15T08:19:18.383Z,7.20
2023-04-15T08:24:21.490Z,7.20
2023-04-15T08:29:24.987Z,7.00
2023-04-15T08:34:30.869Z,6.67
2023-04-15T08:39:33.879Z,6.53
2023-04-15T08:44:38.226Z,7.10
2023-04-15T08:49:44.165Z,5.67
2023-04-15T08:54:47.450Z,6.63
2023-04-15T08:59:50.590Z,6.77
2023-04-15T09:04:55.359Z,5.50
2023-04-15T09:09:58.493Z,5.17
2023-04-15T09:15:02.807Z,5.60
2023-04-15T09:20:12.947Z,5.37
2023-04-15T09:25:29.660Z,5.60
2023-04-15T09:30:32.800Z,3.93
2023-04-15T09:35:37.739Z,4.67
2023-04-15T09:40:42.385Z,4.50
2023-04-15T09:45:49.564Z,4.70
2023-04-15T09:50:54.807Z,4.90
2023-04-15T09:56:00.765Z,3.90
2023-04-15T10:01:05.788Z,3.87
2023-04-15T10:06:10.706Z,3.77
2023-04-15T10:11:13.967Z,3.70
2023-04-15T10:16:20.700Z,3.40
2023-04-15T10:21:25.420Z,3.80
2023-04-15T10:26:29.451Z,3.50
2023-04-15T10:31:32.760Z,3.73
2023-04-15T10:36:38.011Z,3.40
2023-04-15T10:41:41.785Z,3.03
2023-04-15T10:46:46.630Z,3.20
2023-04-15T10:51:54.493Z,3.10
2023-04-15T10:57:10.521Z,2.80
2023-04-15T11:02:15.419Z,2.70
2023-04-15T11:07:40.030Z,2.97
2023-04-15T11:12:43.163Z,2.63
2023-04-15T11:17:47.019Z,2.80
2023-04-15T11:22:52.474Z,2.73
2023-04-15T11:28:13.179Z,4.60
2023-04-15T11:33:16.591Z,3.40
2023-04-15T11:38:21.820Z,3.90
2023-04-15T11:43:25.288Z,3.27
2023-04-15T11:48:30.006Z,3.73
2023-04-15T11:53:42.591Z,4.17
2023-04-15T11:58:46.464Z,4.53
2023-04-15T12:03:50.637Z,4.63
2023-04-15T12:09:04.786Z,5.47
2023-04-15T12:14:11.173Z,4.60
2023-04-15T12:19:15.977Z,5.00
2023-04-15T12:24:23.790Z,4.70
2023-04-15T12:29:28.633Z,4.57
2023-04-15T12:34:33.842Z,4.10
2023-04-15T12:39:39.731Z,4.03
2023-04-15T12:44:43.103Z,4.17
2023-04-15T12:49:46.327Z,3.30
2023-04-15T12:54:51.118Z,3.60
2023-04-15T12:59:54.166Z,3.60
2023-04-15T13:04:57.307Z,3.97
2023-04-15T13:10:02.041Z,3.87
2023-04-15T13:15:05.802Z,3.37
2023-04-15T13:20:09.749Z,3.30
2023-04-15T13:25:14.650Z,3.00
2023-04-15T13:30:18.416Z,3.13
2023-04-15T13:35:21.718Z,3.47
2023-04-15T13:40:26.670Z,3.50
2023-04-15T13:45:29.887Z,3.30
2023-04-15T13:50:32.997Z,4.20
2023-04-15T13:55:41.486Z,4.47
2023-04-15T14:00:44.564Z,4.60
2023-04-15T14:05:47.624Z,4.70
2023-04-15T14:10:52.025Z,4.60
2023-04-15T14:15:55.177Z,4.60
2023-04-15T14:20:58.199Z,4.30
2023-04-15T14:26:02.634Z,4.30
2023-04-15T14:31:06.044Z,3.60
2023-04-15T14:36:10.518Z,3.20
2023-04-15T14:41:15.459Z,3.20
2023-04-15T14:46:18.541Z,2.70
2023-04-15T14:51:21.727Z,2.70
2023-04-15T14:56:26.169Z,3.00
2023-04-15T15:01:30.307Z,2.70
2023-04-15T15:06:33.635Z,2.57
2023-04-15T15:11:38.046Z,2.43
2023-04-15T15:16:41.151Z,2.50
2023-04-15T15:21:44.208Z,2.50
2023-04-15T15:26:49.158Z,2.50
2023-04-15T15:31:52.345Z,2.37
2023-04-15T15:36:57.757Z,2.67
2023-04-15T15:42:02.163Z,2.20
2023-04-15T15:47:05.581Z,2.40
2023-04-15T15:52:08.759Z,2.30
2023-04-15T15:57:13.162Z,3.27
2023-04-15T16:02:16.641Z,4.00
2023-04-15T16:07:20.390Z,3.30
2023-04-15T16:12:24.805Z,2.60
2023-04-15T16:17:27.941Z,9.27
2023-04-15T16:22:31.413Z,10.93
2023-04-15T16:27:46.489Z,5.47
2023-04-15T16:32:57.872Z,10.33
2023-04-15T16:38:01.578Z,6.17
2023-04-15T16:43:07.236Z,4.20
2023-04-15T16:48:10.398Z,4.17
2023-04-15T16:53:13.709Z,5.00
2023-04-15T16:58:18.094Z,3.07
2023-04-15T17:03:21.326Z,4.00
2023-04-15T17:08:24.688Z,3.00
2023-04-15T17:13:29.304Z,3.30
2023-04-15T17:18:32.424Z,2.90
2023-04-15T17:23:35.669Z,6.47
2023-04-15T17:28:40.530Z,3.17
2023-04-15T17:33:56.283Z,4.90
2023-04-15T17:39:09.804Z,3.00
2023-04-15T17:44:14.622Z,3.23
2023-04-15T17:49:17.821Z,3.20
2023-04-15T17:54:21.150Z,3.10
2023-04-15T17:59:25.567Z,3.70
2023-04-15T18:04:29.360Z,3.50
2023-04-15T18:09:32.558Z,4.40
2023-04-15T18:14:37.247Z,2.70
2023-04-15T18:19:40.366Z,2.67
2023-04-15T18:24:43.410Z,3.07
2023-04-15T18:29:47.861Z,2.70
2023-04-15T18:34:51.024Z,3.03
2023-04-15T18:39:54.104Z,3.13
2023-04-15T18:44:58.564Z,2.67
2023-04-15T18:50:01.662Z,2.53
2023-04-15T18:55:05.592Z,2.73
2023-04-15T19:00:11.812Z,3.93
2023-04-15T19:05:14.850Z,3.60
2023-04-15T19:10:18.003Z,1.90
2023-04-15T19:15:22.674Z,1.90
2023-04-15T19:20:25.805Z,2.00
2023-04-15T19:25:29.019Z,2.07
2023-04-15T19:30:33.553Z,2.00
2023-04-15T19:35:38.168Z,2.40
2023-04-15T19:40:41.460Z,2.10
2023-04-15T19:45:46.770Z,2.70
2023-04-15T19:50:49.948Z,2.33
2023-04-15T19:55:53.028Z,2.67
2023-04-15T20:00:58.220Z,2.70
2023-04-15T20:06:01.246Z,2.23
2023-04-15T20:11:05.484Z,2.83
2023-04-15T20:16:12.044Z,2.87
2023-04-15T20:21:15.664Z,2.50
2023-04-15T20:26:19.953Z,3.10
2023-04-15T20:31:24.759Z,2.77
2023-04-15T20:36:28.543Z,3.10
2023-04-15T20:41:34.276Z,2.97
2023-04-15T20:46:41.187Z,3.43
2023-04-15T20:51:44.526Z,3.43
2023-04-15T20:56:47.676Z,4.00
2023-04-15T21:01:52.277Z,3.83
2023-04-15T21:06:55.410Z,4.00
2023-04-15T21:12:01.550Z,4.00
2023-04-15T21:17:10.855Z,4.40
2023-04-15T21:22:14.863Z,3.90
2023-04-15T21:27:17.989Z,4.23
2023-04-15T21:32:22.420Z,4.30
2023-04-15T21:37:25.514Z,4.30
2023-04-15T21:42:28.617Z,4.30
2023-04-15T21:48:00.544Z,4.30
2023-04-15T21:52:56.063Z,4.70
2023-04-15T21:57:59.525Z,5.23
2023-04-15T22:03:06.752Z,5.70
2023-04-15T22:08:10.242Z,5.47
2023-04-15T22:13:13.539Z,5.20
2023-04-15T22:18:20.814Z,5.33
2023-04-15T22:23:23.869Z,5.53
2023-04-15T22:28:26.988Z,5.50
2023-04-15T22:33:31.379Z,5.77
2023-04-15T22:38:34.543Z,6.13
2023-04-15T22:43:37.564Z,7.10
2023-04-15T22:48:42.870Z,7.60
2023-04-15T22:53:45.894Z,7.50
2023-04-15T22:58:49.276Z,7.70
2023-04-15T23:03:57.012Z,7.73
2023-04-15T23:09:12.182Z,8.10
2023-04-15T23:14:15.408Z,8.33
2023-04-15T23:19:19.864Z,8.43
2023-04-15T23:24:23.866Z,8.70
2023-04-15T23:29:26.941Z,8.37
2023-04-15T23:34:31.339Z,9.10
2023-04-15T23:39:34.391Z,9.70
2023-04-15T23:44:38.852Z,9.67
2023-04-15T23:49:43.194Z,8.90
2023-04-15T23:54:46.351Z,9.70
2023-04-15T23:59:49.388Z,10.00
